sensor_id;sensor_type;location;lat;lon;timestamp;P1;durP1;ratioP1;P2;durP2;ratioP2
13238;SDS011;6686;51.292;4.166;2022-08-21T00:00:50;4.00;;;2.60;;
13238;SDS011;6686;51.292;4.166;2022-08-21T00:03:36;6.97;;;2.97;;
13238;SDS011;6686;51.292;4.166;2022-08-21T00:06:25;5.13;;;2.50;;
13238;SDS011;6686;51.292;4.166;2022-08-21T00:09:14;6.93;;;2.73;;
13238;SDS011;6686;51.292;4.166;2022-08-21T00:12:01;6.33;;;2.63;;
13238;SDS011;6686;51.292;4.166;2022-08-21T00:14:47;5.33;;;2.80;;
13238;SDS011;6686;51.292;4.166;2022-08-21T00:17:33;6.87;;;2.80;;
13238;SDS011;6686;51.292;4.166;2022-08-21T00:20:19;5.10;;;2.78;;
13238;SDS011;6686;51.292;4.166;2022-08-21T00:23:05;4.97;;;3.12;;
13238;SDS011;6686;51.292;4.166;2022-08-21T00:25:51;8.90;;;2.70;;
13238;SDS011;6686;51.292;4.166;2022-08-21T00:28:37;5.60;;;2.73;;
13238;SDS011;6686;51.292;4.166;2022-08-21T00:31:23;4.43;;;2.60;;
13238;SDS011;6686;51.292;4.166;2022-08-21T00:34:10;5.40;;;2.23;;
13238;SDS011;6686;51.292;4.166;2022-08-21T00:36:55;6.85;;;3.17;;
13238;SDS011;6686;51.292;4.166;2022-08-21T00:39:40;7.50;;;3.67;;
13238;SDS011;6686;51.292;4.166;2022-08-21T00:42:28;6.43;;;3.62;;
13238;SDS011;6686;51.292;4.166;2022-08-21T00:45:13;5.77;;;3.70;;
13238;SDS011;6686;51.292;4.166;2022-08-21T00:47:59;6.83;;;3.50;;
13238;SDS011;6686;51.292;4.166;2022-08-21T00:50:53;5.33;;;3.53;;
13238;SDS011;6686;51.292;4.166;2022-08-21T00:53:35;6.07;;;3.30;;
13238;SDS011;6686;51.292;4.166;2022-08-21T00:56:19;4.47;;;3.70;;
13238;SDS011;6686;51.292;4.166;2022-08-21T00:59:06;4.77;;;3.63;;
13238;SDS011;6686;51.292;4.166;2022-08-21T01:01:55;6.87;;;3.80;;
13238;SDS011;6686;51.292;4.166;2022-08-21T01:04:41;5.67;;;3.30;;
13238;SDS011;6686;51.292;4.166;2022-08-21T01:07:27;7.43;;;3.83;;
13238;SDS011;6686;51.292;4.166;2022-08-21T01:10:13;8.37;;;4.10;;
13238;SDS011;6686;51.292;4.166;2022-08-21T01:13:00;5.68;;;3.90;;
13238;SDS011;6686;51.292;4.166;2022-08-21T01:15:47;6.97;;;3.80;;
13238;SDS011;6686;51.292;4.166;2022-08-21T01:18:32;5.93;;;3.93;;
13238;SDS011;6686;51.292;4.166;2022-08-21T01:21:19;6.57;;;3.70;;
13238;SDS011;6686;51.292;4.166;2022-08-21T01:24:04;5.37;;;3.70;;
13238;SDS011;6686;51.292;4.166;2022-08-21T01:26:50;5.90;;;3.53;;
13238;SDS011;6686;51.292;4.166;2022-08-21T01:32:25;7.83;;;3.63;;
13238;SDS011;6686;51.292;4.166;2022-08-21T01:35:12;4.13;;;3.37;;
13238;SDS011;6686;51.292;4.166;2022-08-21T01:37:57;6.73;;;3.70;;
13238;SDS011;6686;51.292;4.166;2022-08-21T01:40:43;5.50;;;3.80;;
13238;SDS011;6686;51.292;4.166;2022-08-21T01:43:28;8.27;;;3.33;;
13238;SDS011;6686;51.292;4.166;2022-08-21T01:46:15;7.87;;;3.73;;
13238;SDS011;6686;51.292;4.166;2022-08-21T01:49:01;5.73;;;3.47;;
13238;SDS011;6686;51.292;4.166;2022-08-21T01:51:47;7.50;;;3.70;;
13238;SDS011;6686;51.292;4.166;2022-08-21T01:54:33;7.43;;;4.00;;
13238;SDS011;6686;51.292;4.166;2022-08-21T01:57:19;5.63;;;3.90;;
13238;SDS011;6686;51.292;4.166;2022-08-21T02:00:06;6.83;;;3.97;;
13238;SDS011;6686;51.292;4.166;2022-08-21T02:02:54;9.13;;;4.03;;
13238;SDS011;6686;51.292;4.166;2022-08-21T02:05:40;6.10;;;3.53;;
13238;SDS011;6686;51.292;4.166;2022-08-21T02:08:27;5.93;;;3.70;;
13238;SDS011;6686;51.292;4.166;2022-08-21T02:11:14;6.77;;;3.57;;
13238;SDS011;6686;51.292;4.166;2022-08-21T02:14:01;7.87;;;3.83;;
13238;SDS011;6686;51.292;4.166;2022-08-21T02:16:47;5.73;;;3.77;;
13238;SDS011;6686;51.292;4.166;2022-08-21T02:19:33;7.50;;;3.70;;
13238;SDS011;6686;51.292;4.166;2022-08-21T02:22:19;10.07;;;3.93;;
13238;SDS011;6686;51.292;4.166;2022-08-21T02:25:07;4.67;;;3.30;;
13238;SDS011;6686;51.292;4.166;2022-08-21T02:27:54;3.77;;;3.13;;
13238;SDS011;6686;51.292;4.166;2022-08-21T02:30:43;5.63;;;3.13;;
13238;SDS011;6686;51.292;4.166;2022-08-21T02:33:26;6.57;;;3.50;;
13238;SDS011;6686;51.292;4.166;2022-08-21T02:36:13;6.83;;;3.57;;
13238;SDS011;6686;51.292;4.166;2022-08-21T02:39:06;6.53;;;3.23;;
13238;SDS011;6686;51.292;4.166;2022-08-21T02:41:48;6.82;;;3.17;;
13238;SDS011;6686;51.292;4.166;2022-08-21T02:44:34;6.43;;;3.53;;
13238;SDS011;6686;51.292;4.166;2022-08-21T02:47:21;7.20;;;3.23;;
13238;SDS011;6686;51.292;4.166;2022-08-21T02:50:07;5.00;;;3.00;;
13238;SDS011;6686;51.292;4.166;2022-08-21T02:52:53;6.07;;;2.97;;
13238;SDS011;6686;51.292;4.166;2022-08-21T02:55:40;5.17;;;2.77;;
13238;SDS011;6686;51.292;4.166;2022-08-21T02:58:28;9.47;;;3.03;;
13238;SDS011;6686;51.292;4.166;2022-08-21T03:01:12;6.00;;;3.50;;
13238;SDS011;6686;51.292;4.166;2022-08-21T03:03:58;5.60;;;3.10;;
13238;SDS011;6686;51.292;4.166;2022-08-21T03:06:44;7.53;;;2.97;;
13238;SDS011;6686;51.292;4.166;2022-08-21T03:09:30;7.93;;;3.00;;
13238;SDS011;6686;51.292;4.166;2022-08-21T03:12:17;6.10;;;3.42;;
13238;SDS011;6686;51.292;4.166;2022-08-21T03:15:03;11.27;;;3.50;;
13238;SDS011;6686;51.292;4.166;2022-08-21T03:17:49;7.43;;;3.50;;
13238;SDS011;6686;51.292;4.166;2022-08-21T03:20:35;7.20;;;3.67;;
13238;SDS011;6686;51.292;4.166;2022-08-21T03:23:22;7.00;;;3.37;;
13238;SDS011;6686;51.292;4.166;2022-08-21T03:26:09;10.13;;;3.83;;
13238;SDS011;6686;51.292;4.166;2022-08-21T03:28:56;7.10;;;3.50;;
13238;SDS011;6686;51.292;4.166;2022-08-21T03:31:41;7.55;;;3.62;;
13238;SDS011;6686;51.292;4.166;2022-08-21T03:34:27;7.20;;;3.23;;
13238;SDS011;6686;51.292;4.166;2022-08-21T03:37:14;10.27;;;3.47;;
13238;SDS011;6686;51.292;4.166;2022-08-21T03:40:03;6.37;;;3.17;;
13238;SDS011;6686;51.292;4.166;2022-08-21T03:42:47;6.83;;;3.07;;
13238;SDS011;6686;51.292;4.166;2022-08-21T03:45:33;5.70;;;2.80;;
13238;SDS011;6686;51.292;4.166;2022-08-21T03:48:20;7.30;;;3.20;;
13238;SDS011;6686;51.292;4.166;2022-08-21T03:51:07;7.17;;;4.10;;
13238;SDS011;6686;51.292;4.166;2022-08-21T03:53:52;5.67;;;3.20;;
13238;SDS011;6686;51.292;4.166;2022-08-21T03:56:38;8.57;;;3.93;;
13238;SDS011;6686;51.292;4.166;2022-08-21T03:59:25;6.43;;;3.20;;
13238;SDS011;6686;51.292;4.166;2022-08-21T04:02:11;9.87;;;3.33;;
13238;SDS011;6686;51.292;4.166;2022-08-21T04:04:57;9.17;;;3.43;;
13238;SDS011;6686;51.292;4.166;2022-08-21T04:07:43;7.53;;;3.17;;
13238;SDS011;6686;51.292;4.166;2022-08-21T04:10:30;7.47;;;3.30;;
13238;SDS011;6686;51.292;4.166;2022-08-21T04:13:16;6.10;;;3.43;;
13238;SDS011;6686;51.292;4.166;2022-08-21T04:16:02;6.70;;;3.53;;
13238;SDS011;6686;51.292;4.166;2022-08-21T04:18:48;6.70;;;3.10;;
13238;SDS011;6686;51.292;4.166;2022-08-21T04:21:35;6.47;;;3.30;;
13238;SDS011;6686;51.292;4.166;2022-08-21T04:24:25;7.53;;;3.47;;
13238;SDS011;6686;51.292;4.166;2022-08-21T04:27:11;5.97;;;3.50;;
13238;SDS011;6686;51.292;4.166;2022-08-21T04:29:57;6.47;;;3.07;;
13238;SDS011;6686;51.292;4.166;2022-08-21T04:32:44;7.47;;;3.30;;
13238;SDS011;6686;51.292;4.166;2022-08-21T04:35:32;10.40;;;3.37;;
13238;SDS011;6686;51.292;4.166;2022-08-21T04:38:18;11.30;;;3.67;;
13238;SDS011;6686;51.292;4.166;2022-08-21T04:41:05;8.13;;;3.50;;
13238;SDS011;6686;51.292;4.166;2022-08-21T04:43:51;6.67;;;2.93;;
13238;SDS011;6686;51.292;4.166;2022-08-21T04:46:37;6.23;;;3.37;;
13238;SDS011;6686;51.292;4.166;2022-08-21T04:49:23;10.20;;;3.17;;
13238;SDS011;6686;51.292;4.166;2022-08-21T04:52:09;7.33;;;3.97;;
13238;SDS011;6686;51.292;4.166;2022-08-21T04:54:55;8.97;;;3.43;;
13238;SDS011;6686;51.292;4.166;2022-08-21T04:57:42;8.73;;;2.80;;
13238;SDS011;6686;51.292;4.166;2022-08-21T05:00:28;9.63;;;3.80;;
13238;SDS011;6686;51.292;4.166;2022-08-21T05:03:14;8.75;;;3.45;;
13238;SDS011;6686;51.292;4.166;2022-08-21T05:06:00;8.53;;;3.17;;
13238;SDS011;6686;51.292;4.166;2022-08-21T05:08:47;10.47;;;3.00;;
13238;SDS011;6686;51.292;4.166;2022-08-21T05:11:32;5.57;;;2.97;;
13238;SDS011;6686;51.292;4.166;2022-08-21T05:14:21;5.53;;;3.13;;
13238;SDS011;6686;51.292;4.166;2022-08-21T05:17:07;10.13;;;3.60;;
13238;SDS011;6686;51.292;4.166;2022-08-21T05:19:53;5.97;;;3.07;;
13238;SDS011;6686;51.292;4.166;2022-08-21T05:22:39;8.20;;;2.97;;
13238;SDS011;6686;51.292;4.166;2022-08-21T05:25:24;7.97;;;3.70;;
13238;SDS011;6686;51.292;4.166;2022-08-21T05:28:10;8.27;;;3.07;;
13238;SDS011;6686;51.292;4.166;2022-08-21T05:30:56;6.53;;;3.17;;
13238;SDS011;6686;51.292;4.166;2022-08-21T05:33:42;6.17;;;3.07;;
13238;SDS011;6686;51.292;4.166;2022-08-21T05:36:28;5.67;;;3.17;;
13238;SDS011;6686;51.292;4.166;2022-08-21T05:39:14;7.00;;;2.97;;
13238;SDS011;6686;51.292;4.166;2022-08-21T05:42:00;7.77;;;3.03;;
13238;SDS011;6686;51.292;4.166;2022-08-21T05:44:47;4.90;;;3.07;;
13238;SDS011;6686;51.292;4.166;2022-08-21T05:47:33;9.03;;;3.20;;
13238;SDS011;6686;51.292;4.166;2022-08-21T05:50:19;6.57;;;2.80;;
13238;SDS011;6686;51.292;4.166;2022-08-21T05:53:05;6.85;;;3.60;;
13238;SDS011;6686;51.292;4.166;2022-08-21T05:55:51;6.23;;;2.80;;
13238;SDS011;6686;51.292;4.166;2022-08-21T05:58:37;7.80;;;3.07;;
13238;SDS011;6686;51.292;4.166;2022-08-21T06:01:23;11.23;;;3.23;;
13238;SDS011;6686;51.292;4.166;2022-08-21T06:04:09;4.07;;;2.80;;
13238;SDS011;6686;51.292;4.166;2022-08-21T06:06:55;5.63;;;3.17;;
13238;SDS011;6686;51.292;4.166;2022-08-21T06:09:41;6.67;;;3.53;;
13238;SDS011;6686;51.292;4.166;2022-08-21T06:12:27;9.68;;;3.95;;
13238;SDS011;6686;51.292;4.166;2022-08-21T06:15:13;7.23;;;3.63;;
13238;SDS011;6686;51.292;4.166;2022-08-21T06:17:59;11.00;;;3.67;;
13238;SDS011;6686;51.292;4.166;2022-08-21T06:20:45;6.50;;;3.07;;
13238;SDS011;6686;51.292;4.166;2022-08-21T06:23:33;6.37;;;3.20;;
13238;SDS011;6686;51.292;4.166;2022-08-21T06:26:18;6.83;;;3.10;;
13238;SDS011;6686;51.292;4.166;2022-08-21T06:29:04;8.30;;;3.30;;
13238;SDS011;6686;51.292;4.166;2022-08-21T06:31:50;5.20;;;3.03;;
13238;SDS011;6686;51.292;4.166;2022-08-21T06:34:37;6.50;;;2.60;;
13238;SDS011;6686;51.292;4.166;2022-08-21T06:37:25;6.77;;;4.50;;
13238;SDS011;6686;51.292;4.166;2022-08-21T06:40:12;5.37;;;2.97;;
13238;SDS011;6686;51.292;4.166;2022-08-21T06:43:04;7.50;;;3.23;;
13238;SDS011;6686;51.292;4.166;2022-08-21T06:45:44;7.33;;;3.60;;
13238;SDS011;6686;51.292;4.166;2022-08-21T06:48:30;8.33;;;3.30;;
13238;SDS011;6686;51.292;4.166;2022-08-21T06:51:18;7.15;;;3.60;;
13238;SDS011;6686;51.292;4.166;2022-08-21T06:54:04;11.03;;;4.03;;
13238;SDS011;6686;51.292;4.166;2022-08-21T06:56:53;8.45;;;3.80;;
13238;SDS011;6686;51.292;4.166;2022-08-21T06:59:39;7.35;;;3.55;;
13238;SDS011;6686;51.292;4.166;2022-08-21T07:02:25;9.20;;;3.90;;
13238;SDS011;6686;51.292;4.166;2022-08-21T07:05:11;8.70;;;3.40;;
13238;SDS011;6686;51.292;4.166;2022-08-21T07:07:57;10.90;;;4.22;;
13238;SDS011;6686;51.292;4.166;2022-08-21T07:10:43;9.77;;;3.70;;
13238;SDS011;6686;51.292;4.166;2022-08-21T07:13:28;8.35;;;3.87;;
13238;SDS011;6686;51.292;4.166;2022-08-21T07:16:15;7.72;;;3.60;;
13238;SDS011;6686;51.292;4.166;2022-08-21T07:19:00;7.82;;;3.40;;
13238;SDS011;6686;51.292;4.166;2022-08-21T07:21:46;10.15;;;3.95;;
13238;SDS011;6686;51.292;4.166;2022-08-21T07:24:32;7.85;;;3.30;;
13238;SDS011;6686;51.292;4.166;2022-08-21T07:27:18;9.30;;;3.35;;
13238;SDS011;6686;51.292;4.166;2022-08-21T07:30:05;8.80;;;3.45;;
13238;SDS011;6686;51.292;4.166;2022-08-21T07:32:51;7.03;;;2.95;;
13238;SDS011;6686;51.292;4.166;2022-08-21T07:35:38;7.28;;;2.97;;
13238;SDS011;6686;51.292;4.166;2022-08-21T07:38:24;6.57;;;2.95;;
13238;SDS011;6686;51.292;4.166;2022-08-21T07:41:21;10.55;;;3.78;;
13238;SDS011;6686;51.292;4.166;2022-08-21T07:44:05;6.30;;;2.72;;
13238;SDS011;6686;51.292;4.166;2022-08-21T07:46:51;8.52;;;3.03;;
13238;SDS011;6686;51.292;4.166;2022-08-21T07:49:40;9.82;;;2.58;;
13238;SDS011;6686;51.292;4.166;2022-08-21T07:52:28;10.10;;;3.47;;
13238;SDS011;6686;51.292;4.166;2022-08-21T07:55:16;5.97;;;2.73;;
13238;SDS011;6686;51.292;4.166;2022-08-21T07:58:00;8.00;;;3.33;;
13238;SDS011;6686;51.292;4.166;2022-08-21T08:00:46;9.65;;;3.08;;
13238;SDS011;6686;51.292;4.166;2022-08-21T08:03:32;10.53;;;3.43;;
13238;SDS011;6686;51.292;4.166;2022-08-21T08:06:18;10.30;;;3.67;;
13238;SDS011;6686;51.292;4.166;2022-08-21T08:09:04;10.53;;;3.83;;
13238;SDS011;6686;51.292;4.166;2022-08-21T08:11:50;10.00;;;3.57;;
13238;SDS011;6686;51.292;4.166;2022-08-21T08:14:36;8.70;;;4.00;;
13238;SDS011;6686;51.292;4.166;2022-08-21T08:17:21;9.23;;;3.67;;
13238;SDS011;6686;51.292;4.166;2022-08-21T08:20:08;11.50;;;3.30;;
13238;SDS011;6686;51.292;4.166;2022-08-21T08:22:54;12.73;;;3.90;;
13238;SDS011;6686;51.292;4.166;2022-08-21T08:25:40;7.67;;;3.10;;
13238;SDS011;6686;51.292;4.166;2022-08-21T08:28:26;9.27;;;3.42;;
13238;SDS011;6686;51.292;4.166;2022-08-21T08:31:13;8.00;;;3.40;;
13238;SDS011;6686;51.292;4.166;2022-08-21T08:34:01;9.37;;;3.17;;
13238;SDS011;6686;51.292;4.166;2022-08-21T08:36:49;7.28;;;3.10;;
13238;SDS011;6686;51.292;4.166;2022-08-21T08:39:34;6.07;;;2.60;;
13238;SDS011;6686;51.292;4.166;2022-08-21T08:42:28;7.33;;;2.50;;
13238;SDS011;6686;51.292;4.166;2022-08-21T08:45:14;8.67;;;3.30;;
13238;SDS011;6686;51.292;4.166;2022-08-21T08:48:00;6.93;;;2.13;;
13238;SDS011;6686;51.292;4.166;2022-08-21T08:53:41;6.87;;;2.90;;
13238;SDS011;6686;51.292;4.166;2022-08-21T08:56:27;9.80;;;2.47;;
13238;SDS011;6686;51.292;4.166;2022-08-21T08:59:12;6.50;;;2.53;;
13238;SDS011;6686;51.292;4.166;2022-08-21T09:01:55;5.17;;;2.17;;
13238;SDS011;6686;51.292;4.166;2022-08-21T09:04:41;5.53;;;2.30;;
13238;SDS011;6686;51.292;4.166;2022-08-21T09:07:32;10.23;;;2.80;;
13238;SDS011;6686;51.292;4.166;2022-08-21T09:10:23;9.93;;;3.00;;
13238;SDS011;6686;51.292;4.166;2022-08-21T09:25:21;5.67;;;2.70;;
13238;SDS011;6686;51.292;4.166;2022-08-21T09:28:12;7.23;;;2.40;;
13238;SDS011;6686;51.292;4.166;2022-08-21T09:30:58;5.93;;;2.53;;
13238;SDS011;6686;51.292;4.166;2022-08-21T09:33:44;7.80;;;3.15;;
13238;SDS011;6686;51.292;4.166;2022-08-21T09:36:54;6.20;;;2.50;;
13238;SDS011;6686;51.292;4.166;2022-08-21T09:39:25;8.97;;;2.50;;
13238;SDS011;6686;51.292;4.166;2022-08-21T09:42:10;9.33;;;2.70;;
13238;SDS011;6686;51.292;4.166;2022-08-21T09:45:13;5.43;;;2.13;;
13238;SDS011;6686;51.292;4.166;2022-08-21T09:48:11;7.53;;;2.70;;
13238;SDS011;6686;51.292;4.166;2022-08-21T09:51:05;9.17;;;2.70;;
13238;SDS011;6686;51.292;4.166;2022-08-21T09:53:44;6.03;;;2.70;;
13238;SDS011;6686;51.292;4.166;2022-08-21T09:56:30;7.30;;;2.80;;
13238;SDS011;6686;51.292;4.166;2022-08-21T09:59:34;6.23;;;2.90;;
13238;SDS011;6686;51.292;4.166;2022-08-21T10:02:25;9.35;;;2.92;;
13238;SDS011;6686;51.292;4.166;2022-08-21T10:05:25;6.73;;;2.87;;
13238;SDS011;6686;51.292;4.166;2022-08-21T10:08:21;9.57;;;2.93;;
13238;SDS011;6686;51.292;4.166;2022-08-21T10:11:04;7.90;;;3.08;;
13238;SDS011;6686;51.292;4.166;2022-08-21T10:22:45;9.57;;;2.67;;
13238;SDS011;6686;51.292;4.166;2022-08-21T10:25:40;7.63;;;3.03;;
13238;SDS011;6686;51.292;4.166;2022-08-21T10:28:36;7.33;;;3.37;;
13238;SDS011;6686;51.292;4.166;2022-08-21T10:34:23;7.27;;;3.00;;
13238;SDS011;6686;51.292;4.166;2022-08-21T10:46:16;8.50;;;2.60;;
13238;SDS011;6686;51.292;4.166;2022-08-21T10:52:26;7.67;;;3.00;;
13238;SDS011;6686;51.292;4.166;2022-08-21T10:55:27;12.17;;;4.07;;
13238;SDS011;6686;51.292;4.166;2022-08-21T10:58:14;8.47;;;2.63;;
13238;SDS011;6686;51.292;4.166;2022-08-21T11:01:15;9.80;;;2.93;;
13238;SDS011;6686;51.292;4.166;2022-08-21T11:04:13;8.73;;;2.57;;
13238;SDS011;6686;51.292;4.166;2022-08-21T11:07:05;8.20;;;2.77;;
13238;SDS011;6686;51.292;4.166;2022-08-21T11:09:50;8.27;;;3.33;;
13238;SDS011;6686;51.292;4.166;2022-08-21T11:12:53;8.23;;;2.90;;
13238;SDS011;6686;51.292;4.166;2022-08-21T11:15:56;9.30;;;2.67;;
13238;SDS011;6686;51.292;4.166;2022-08-21T11:18:47;3.93;;;2.20;;
13238;SDS011;6686;51.292;4.166;2022-08-21T11:21:34;6.37;;;3.00;;
13238;SDS011;6686;51.292;4.166;2022-08-21T11:27:29;7.47;;;2.35;;
13238;SDS011;6686;51.292;4.166;2022-08-21T11:30:44;9.87;;;2.60;;
13238;SDS011;6686;51.292;4.166;2022-08-21T11:33:47;7.25;;;2.53;;
13238;SDS011;6686;51.292;4.166;2022-08-21T11:36:38;9.02;;;3.10;;
13238;SDS011;6686;51.292;4.166;2022-08-21T11:39:38;6.67;;;2.50;;
13238;SDS011;6686;51.292;4.166;2022-08-21T11:51:00;10.35;;;3.05;;
13238;SDS011;6686;51.292;4.166;2022-08-21T11:53:48;5.27;;;1.87;;
13238;SDS011;6686;51.292;4.166;2022-08-21T11:56:37;6.37;;;2.27;;
13238;SDS011;6686;51.292;4.166;2022-08-21T11:59:29;6.50;;;2.50;;
13238;SDS011;6686;51.292;4.166;2022-08-21T12:02:18;7.67;;;2.93;;
13238;SDS011;6686;51.292;4.166;2022-08-21T12:05:04;4.33;;;1.90;;
13238;SDS011;6686;51.292;4.166;2022-08-21T12:07:59;6.43;;;2.62;;
13238;SDS011;6686;51.292;4.166;2022-08-21T12:10:36;7.87;;;2.20;;
13238;SDS011;6686;51.292;4.166;2022-08-21T12:13:23;7.50;;;2.15;;
13238;SDS011;6686;51.292;4.166;2022-08-21T12:16:15;6.67;;;2.30;;
13238;SDS011;6686;51.292;4.166;2022-08-21T12:19:11;6.00;;;2.13;;
13238;SDS011;6686;51.292;4.166;2022-08-21T12:21:52;10.43;;;2.33;;
13238;SDS011;6686;51.292;4.166;2022-08-21T12:24:44;6.63;;;2.07;;
13238;SDS011;6686;51.292;4.166;2022-08-21T12:27:30;7.63;;;2.20;;
13238;SDS011;6686;51.292;4.166;2022-08-21T12:30:23;7.90;;;2.60;;
13238;SDS011;6686;51.292;4.166;2022-08-21T12:36:14;7.75;;;2.53;;
13238;SDS011;6686;51.292;4.166;2022-08-21T12:39:04;5.43;;;2.28;;
13238;SDS011;6686;51.292;4.166;2022-08-21T12:41:51;5.70;;;2.40;;
13238;SDS011;6686;51.292;4.166;2022-08-21T12:44:43;3.65;;;2.03;;
13238;SDS011;6686;51.292;4.166;2022-08-21T12:47:33;9.13;;;2.80;;
13238;SDS011;6686;51.292;4.166;2022-08-21T12:50:33;7.97;;;2.30;;
13238;SDS011;6686;51.292;4.166;2022-08-21T12:56:27;6.93;;;2.20;;
13238;SDS011;6686;51.292;4.166;2022-08-21T12:59:14;5.75;;;2.50;;
13238;SDS011;6686;51.292;4.166;2022-08-21T13:02:07;6.33;;;2.23;;
13238;SDS011;6686;51.292;4.166;2022-08-21T13:04:45;7.53;;;2.47;;
13238;SDS011;6686;51.292;4.166;2022-08-21T13:07:32;7.00;;;2.70;;
13238;SDS011;6686;51.292;4.166;2022-08-21T13:10:22;9.13;;;2.10;;
13238;SDS011;6686;51.292;4.166;2022-08-21T13:13:08;6.03;;;2.57;;
13238;SDS011;6686;51.292;4.166;2022-08-21T13:15:56;10.33;;;2.20;;
13238;SDS011;6686;51.292;4.166;2022-08-21T13:18:51;5.03;;;2.30;;
13238;SDS011;6686;51.292;4.166;2022-08-21T13:21:32;4.73;;;2.10;;
13238;SDS011;6686;51.292;4.166;2022-08-21T13:24:23;6.27;;;2.30;;
13238;SDS011;6686;51.292;4.166;2022-08-21T13:27:03;9.53;;;2.83;;
13238;SDS011;6686;51.292;4.166;2022-08-21T13:29:59;7.57;;;2.07;;
13238;SDS011;6686;51.292;4.166;2022-08-21T13:32:37;4.63;;;2.23;;
13238;SDS011;6686;51.292;4.166;2022-08-21T13:35:24;7.43;;;2.03;;
13238;SDS011;6686;51.292;4.166;2022-08-21T13:38:10;5.20;;;2.33;;
13238;SDS011;6686;51.292;4.166;2022-08-21T13:40:58;5.50;;;2.30;;
13238;SDS011;6686;51.292;4.166;2022-08-21T13:43:46;5.43;;;2.30;;
13238;SDS011;6686;51.292;4.166;2022-08-21T13:46:32;6.60;;;2.57;;
13238;SDS011;6686;51.292;4.166;2022-08-21T13:49:19;5.77;;;2.00;;
13238;SDS011;6686;51.292;4.166;2022-08-21T13:52:04;8.48;;;3.35;;
13238;SDS011;6686;51.292;4.166;2022-08-21T13:55:00;7.73;;;2.47;;
13238;SDS011;6686;51.292;4.166;2022-08-21T13:57:44;8.10;;;2.72;;
13238;SDS011;6686;51.292;4.166;2022-08-21T14:00:32;5.20;;;2.55;;
13238;SDS011;6686;51.292;4.166;2022-08-21T14:03:26;5.87;;;2.40;;
13238;SDS011;6686;51.292;4.166;2022-08-21T14:06:12;6.00;;;2.22;;
13238;SDS011;6686;51.292;4.166;2022-08-21T14:08:58;8.02;;;2.67;;
13238;SDS011;6686;51.292;4.166;2022-08-21T14:11:43;6.15;;;2.50;;
13238;SDS011;6686;51.292;4.166;2022-08-21T14:14:31;7.00;;;2.58;;
13238;SDS011;6686;51.292;4.166;2022-08-21T14:17:36;6.50;;;2.10;;
13238;SDS011;6686;51.292;4.166;2022-08-21T14:20:28;7.07;;;2.63;;
13238;SDS011;6686;51.292;4.166;2022-08-21T14:23:25;4.35;;;2.00;;
13238;SDS011;6686;51.292;4.166;2022-08-21T14:26:11;6.00;;;2.33;;
13238;SDS011;6686;51.292;4.166;2022-08-21T14:29:00;5.62;;;2.60;;
13238;SDS011;6686;51.292;4.166;2022-08-21T14:31:56;7.37;;;2.53;;
13238;SDS011;6686;51.292;4.166;2022-08-21T14:34:41;3.77;;;2.33;;
13238;SDS011;6686;51.292;4.166;2022-08-21T14:37:28;11.53;;;2.60;;
13238;SDS011;6686;51.292;4.166;2022-08-21T14:40:14;4.20;;;2.50;;
13238;SDS011;6686;51.292;4.166;2022-08-21T14:43:00;6.00;;;2.30;;
13238;SDS011;6686;51.292;4.166;2022-08-21T14:45:49;8.20;;;2.73;;
13238;SDS011;6686;51.292;4.166;2022-08-21T14:48:35;8.20;;;2.57;;
13238;SDS011;6686;51.292;4.166;2022-08-21T14:51:22;7.87;;;2.60;;
13238;SDS011;6686;51.292;4.166;2022-08-21T14:54:08;9.80;;;2.70;;
13238;SDS011;6686;51.292;4.166;2022-08-21T14:56:53;4.50;;;2.20;;
13238;SDS011;6686;51.292;4.166;2022-08-21T14:59:39;9.87;;;2.57;;
13238;SDS011;6686;51.292;4.166;2022-08-21T15:02:25;6.77;;;2.90;;
13238;SDS011;6686;51.292;4.166;2022-08-21T15:05:11;5.23;;;2.30;;
13238;SDS011;6686;51.292;4.166;2022-08-21T15:07:57;5.07;;;2.30;;
13238;SDS011;6686;51.292;4.166;2022-08-21T15:10:43;6.50;;;2.37;;
13238;SDS011;6686;51.292;4.166;2022-08-21T15:13:29;7.32;;;2.40;;
13238;SDS011;6686;51.292;4.166;2022-08-21T15:16:15;10.43;;;2.70;;
13238;SDS011;6686;51.292;4.166;2022-08-21T15:19:01;5.17;;;2.90;;
13238;SDS011;6686;51.292;4.166;2022-08-21T15:21:46;5.87;;;2.60;;
13238;SDS011;6686;51.292;4.166;2022-08-21T15:24:32;4.43;;;2.50;;
13238;SDS011;6686;51.292;4.166;2022-08-21T15:27:18;5.50;;;2.37;;
13238;SDS011;6686;51.292;4.166;2022-08-21T15:30:04;8.60;;;3.03;;
13238;SDS011;6686;51.292;4.166;2022-08-21T15:32:50;6.33;;;2.77;;
13238;SDS011;6686;51.292;4.166;2022-08-21T15:35:35;7.47;;;3.37;;
13238;SDS011;6686;51.292;4.166;2022-08-21T15:38:21;4.03;;;2.33;;
13238;SDS011;6686;51.292;4.166;2022-08-21T15:41:08;5.07;;;2.57;;
13238;SDS011;6686;51.292;4.166;2022-08-21T15:43:54;6.53;;;2.43;;
13238;SDS011;6686;51.292;4.166;2022-08-21T15:46:39;6.13;;;2.30;;
13238;SDS011;6686;51.292;4.166;2022-08-21T15:49:25;5.37;;;2.63;;
13238;SDS011;6686;51.292;4.166;2022-08-21T15:52:15;4.07;;;2.47;;
13238;SDS011;6686;51.292;4.166;2022-08-21T15:55:01;10.37;;;2.67;;
13238;SDS011;6686;51.292;4.166;2022-08-21T15:57:48;8.00;;;2.30;;
13238;SDS011;6686;51.292;4.166;2022-08-21T16:00:34;6.10;;;2.60;;
13238;SDS011;6686;51.292;4.166;2022-08-21T16:03:20;4.33;;;2.63;;
13238;SDS011;6686;51.292;4.166;2022-08-21T16:06:06;8.93;;;2.53;;
13238;SDS011;6686;51.292;4.166;2022-08-21T16:08:55;6.93;;;2.60;;
13238;SDS011;6686;51.292;4.166;2022-08-21T16:11:40;7.62;;;2.83;;
13238;SDS011;6686;51.292;4.166;2022-08-21T16:14:26;5.47;;;2.73;;
13238;SDS011;6686;51.292;4.166;2022-08-21T16:17:12;5.93;;;3.00;;
13238;SDS011;6686;51.292;4.166;2022-08-21T16:19:58;7.07;;;2.70;;
13238;SDS011;6686;51.292;4.166;2022-08-21T16:22:47;8.00;;;3.17;;
13238;SDS011;6686;51.292;4.166;2022-08-21T16:25:38;5.23;;;2.37;;
13238;SDS011;6686;51.292;4.166;2022-08-21T16:28:23;8.23;;;2.60;;
13238;SDS011;6686;51.292;4.166;2022-08-21T16:31:11;7.53;;;2.73;;
13238;SDS011;6686;51.292;4.166;2022-08-21T16:33:57;6.40;;;2.53;;
13238;SDS011;6686;51.292;4.166;2022-08-21T16:36:43;9.63;;;3.40;;
13238;SDS011;6686;51.292;4.166;2022-08-21T16:39:29;10.10;;;4.20;;
13238;SDS011;6686;51.292;4.166;2022-08-21T16:42:17;11.95;;;5.47;;
13238;SDS011;6686;51.292;4.166;2022-08-21T16:45:02;9.33;;;3.47;;
13238;SDS011;6686;51.292;4.166;2022-08-21T16:47:48;7.43;;;3.35;;
13238;SDS011;6686;51.292;4.166;2022-08-21T16:50:35;8.17;;;3.00;;
13238;SDS011;6686;51.292;4.166;2022-08-21T16:53:22;5.63;;;3.50;;
13238;SDS011;6686;51.292;4.166;2022-08-21T16:56:09;5.17;;;2.60;;
13238;SDS011;6686;51.292;4.166;2022-08-21T16:58:54;10.80;;;2.93;;
13238;SDS011;6686;51.292;4.166;2022-08-21T17:01:40;3.83;;;2.47;;
13238;SDS011;6686;51.292;4.166;2022-08-21T17:04:26;4.87;;;2.27;;
13238;SDS011;6686;51.292;4.166;2022-08-21T17:07:12;5.53;;;2.23;;
13238;SDS011;6686;51.292;4.166;2022-08-21T17:10:01;6.93;;;2.37;;
13238;SDS011;6686;51.292;4.166;2022-08-21T17:12:52;11.53;;;2.37;;
13238;SDS011;6686;51.292;4.166;2022-08-21T17:15:35;5.50;;;2.27;;
13238;SDS011;6686;51.292;4.166;2022-08-21T17:18:21;6.10;;;2.13;;
13238;SDS011;6686;51.292;4.166;2022-08-21T17:21:07;8.27;;;2.33;;
13238;SDS011;6686;51.292;4.166;2022-08-21T17:23:54;5.93;;;2.47;;
13238;SDS011;6686;51.292;4.166;2022-08-21T17:26:39;6.10;;;2.13;;
13238;SDS011;6686;51.292;4.166;2022-08-21T17:29:30;5.50;;;2.37;;
13238;SDS011;6686;51.292;4.166;2022-08-21T17:32:14;5.77;;;2.23;;
13238;SDS011;6686;51.292;4.166;2022-08-21T17:35:03;3.90;;;1.93;;
13238;SDS011;6686;51.292;4.166;2022-08-21T17:37:49;6.07;;;2.30;;
13238;SDS011;6686;51.292;4.166;2022-08-21T17:40:35;5.47;;;2.60;;
13238;SDS011;6686;51.292;4.166;2022-08-21T17:43:21;5.23;;;2.47;;
13238;SDS011;6686;51.292;4.166;2022-08-21T17:46:07;4.17;;;2.10;;
13238;SDS011;6686;51.292;4.166;2022-08-21T17:48:55;4.37;;;1.90;;
13238;SDS011;6686;51.292;4.166;2022-08-21T17:51:41;5.97;;;3.00;;
13238;SDS011;6686;51.292;4.166;2022-08-21T17:54:27;7.30;;;2.73;;
13238;SDS011;6686;51.292;4.166;2022-08-21T17:57:16;7.10;;;2.93;;
13238;SDS011;6686;51.292;4.166;2022-08-21T17:59:59;5.47;;;3.00;;
13238;SDS011;6686;51.292;4.166;2022-08-21T18:02:46;5.63;;;2.33;;